Hellevaroitus Alkaa: 23-07-2018 05:00 Loppuu: 24-07-2018 01:00 varoitus: Hellevaroitus Taso: Keltainen info button

Säätiedot lähimmiltä METAR asemilta

   
EFUT - Utti
Päivitetty: 23-07-2018 08:20
Selkeää  
Selkeää  
   Tuuli: vaihtelee 1.9 km/h
Tuuli: vaihtelee 1.9 km/h
Lämpötila: 21°C
Kastepiste: 17°C
Kosteus: 78%
Ilmanpaine: 1011 mb
Näkyvyys: enemmän kuin 10 km
Pilvitiedot: Selkeää
EFUT 230520Z VRB01KT CAVOK 21/17 Q1011
EFMI - Mikkeli
Päivitetty: 23-07-2018 08:20
Selkeää  
Selkeää  
   Tuuli: Länsi 3.7 km/h
Tuuli: Länsi 3.7 km/h
Lämpötila: 21°C
Kastepiste: 16°C
Kosteus: 73%
Ilmanpaine: 1011 mb
Näkyvyys: enemmän kuin 10 km
Pilvitiedot: Selkeää
EFMI 230520Z AUTO 26002KT CAVOK 21/16 Q1011
EFLP - Lappeenranta
Päivitetty: 23-07-2018 08:20
Selkeää  
Selkeää  
   Tuuli: vaihtelee 3.7 km/h
Tuuli: vaihtelee 3.7 km/h
Lämpötila: 20°C
Kastepiste: 17°C
Kosteus: 83%
Ilmanpaine: 1012 mb
Näkyvyys: enemmän kuin 10 km
Pilvitiedot: Selkeää
EFLP 230520Z AUTO VRB02KT CAVOK 20/17 Q1012
EFHK - Helsinki/Vantaa
Päivitetty: 23-07-2018 08:20
Selkeää  
Selkeää  
   Tuuli: Lounas 7.4 km/h
Tuuli: Lounas 7.4 km/h
Lämpötila: 20°C
Kastepiste: 17°C
Kosteus: 83%
Ilmanpaine: 1012 mb
Näkyvyys: enemmän kuin 10 km
Pilvitiedot: Selkeää
EFHK 230520Z 23004KT 200V280 CAVOK 20/17 Q1012 NOSIG
EFHF - Helsinki/Malmi
Päivitetty: 06-03-2017 17:50
EI Ajankohtaista
Selkeää  
Selkeää  
   Tuuli: Koillinen 11.1 km/h
Tuuli: Koillinen 11.1 km/h
Lämpötila: -2°C
Tuulen hyytävyys: -6°C
Kastepiste: -11°C
Kosteus: 51%
Ilmanpaine: 1021 mb
Näkyvyys: enemmän kuin 10 km
Pilvitiedot: Selkeää
EFHF 061550Z 04006KT 330V100 CAVOK M02/M11 Q1021
ELLX - Luxemburg
Päivitetty: 23-07-2018 08:20
Selkeää  
Selkeää  
   Tuuli: Pohjoiskoillinen 11.1 km/h
Tuuli: Pohjoiskoillinen 11.1 km/h
Lämpötila: 19°C
Kastepiste: 13°C
Kosteus: 68%
Ilmanpaine: 1018 mb
Näkyvyys: enemmän kuin 10 km
Pilvitiedot: Selkeää
ELLX 230520Z 03006KT 360V060 CAVOK 19/13 Q1018 NOSIG

Alkuperäinen skripti  Saratoga-weather.org Sovitettu myös templatelle  Weerstation Leuven